Fletcher, Vermont
Current Conditions -  °F | °C
As of 7:54 AM on Wednesday 22 Oct 2014 (Local Time) from KMVL Reporting Station
Overcast Overcast  
Wind Chill: 46°   Ceiling: 1000
Heat Index: 46°   Visibility: 10mi
Dew Point: 44°   Wind: 0mph
Humidity: 93%   Direction: NA
Pressure: 30.19"   Gusts: NA
Location:  44.6543°N, 72.8545°W
Report Text: KMVL 221154Z AUTO 00000KT 10SM OVC010 08/07 A3019 RMK AO2 RAE54 SLP227 P0002 60003 70034 T00780067 10083 20072 53012
Loading
Personal Weather Stations






























Interactive Weather Map
Tropical Storm Tracking
New forecast layout! Learn more

10-Day Weather Forecast

Advertisements
Track Severe Weather on mobile